sensor_id;sensor_type;location;lat;lon;timestamp;pressure;altitude;pressure_sealevel;temperature;humidity
73981;BME280;62348;51.412;5.436;2022-12-18T00:01:51;102690.25;;;-4.99;85.95
73981;BME280;62348;51.412;5.436;2022-12-18T00:04:23;102690.47;;;-5.02;85.45
73981;BME280;62348;51.412;5.436;2022-12-18T00:06:48;102688.06;;;-5.05;85.61
73981;BME280;62348;51.412;5.436;2022-12-18T00:09:14;102678.59;;;-5.07;85.86
73981;BME280;62348;51.412;5.436;2022-12-18T00:11:39;102686.59;;;-5.09;85.46
73981;BME280;62348;51.412;5.436;2022-12-18T00:14:05;102680.72;;;-5.13;85.52
73981;BME280;62348;51.412;5.436;2022-12-18T00:16:30;102680.09;;;-5.16;84.89
73981;BME280;62348;51.412;5.436;2022-12-18T00:18:59;102687.28;;;-5.18;84.56
73981;BME280;62348;51.412;5.436;2022-12-18T00:21:25;102692.16;;;-5.25;84.47
73981;BME280;62348;51.412;5.436;2022-12-18T00:23:51;102685.44;;;-5.29;84.80
73981;BME280;62348;51.412;5.436;2022-12-18T00:26:20;102669.81;;;-5.32;84.79
73981;BME280;62348;51.412;5.436;2022-12-18T00:28:46;102668.25;;;-5.35;84.36
73981;BME280;62348;51.412;5.436;2022-12-18T00:31:14;102665.00;;;-5.38;84.57
73981;BME280;62348;51.412;5.436;2022-12-18T00:33:40;102665.22;;;-5.41;85.00
73981;BME280;62348;51.412;5.436;2022-12-18T00:36:16;102651.19;;;-5.42;84.93
73981;BME280;62348;51.412;5.436;2022-12-18T00:38:43;102658.38;;;-5.44;84.01
73981;BME280;62348;51.412;5.436;2022-12-18T00:41:10;102660.28;;;-5.46;84.59
73981;BME280;62348;51.412;5.436;2022-12-18T00:43:37;102648.28;;;-5.50;84.79
73981;BME280;62348;51.412;5.436;2022-12-18T00:46:02;102654.50;;;-5.51;84.64
73981;BME280;62348;51.412;5.436;2022-12-18T00:48:28;102653.88;;;-5.55;84.92
73981;BME280;62348;51.412;5.436;2022-12-18T00:50:53;102648.59;;;-5.55;84.94
73981;BME280;62348;51.412;5.436;2022-12-18T00:53:19;102654.72;;;-5.54;84.93
73981;BME280;62348;51.412;5.436;2022-12-18T00:55:45;102653.97;;;-5.56;84.52
73981;BME280;62348;51.412;5.436;2022-12-18T00:58:15;102647.03;;;-5.57;84.04
73981;BME280;62348;51.412;5.436;2022-12-18T01:00:41;102644.50;;;-5.59;84.37
73981;BME280;62348;51.412;5.436;2022-12-18T01:03:06;102651.69;;;-5.61;84.21
73981;BME280;62348;51.412;5.436;2022-12-18T01:05:32;102660.44;;;-5.60;84.94
73981;BME280;62348;51.412;5.436;2022-12-18T01:07:58;102661.50;;;-5.63;84.29
73981;BME280;62348;51.412;5.436;2022-12-18T01:10:25;102661.59;;;-5.64;84.14
73981;BME280;62348;51.412;5.436;2022-12-18T01:12:51;102664.34;;;-5.66;84.43
73981;BME280;62348;51.412;5.436;2022-12-18T01:15:17;102669.97;;;-5.71;84.25
73981;BME280;62348;51.412;5.436;2022-12-18T01:17:43;102664.88;;;-5.74;84.47
73981;BME280;62348;51.412;5.436;2022-12-18T01:20:09;102673.88;;;-5.76;83.94
73981;BME280;62348;51.412;5.436;2022-12-18T01:22:35;102674.06;;;-5.79;83.56
73981;BME280;62348;51.412;5.436;2022-12-18T01:25:01;102670.81;;;-5.83;83.66
73981;BME280;62348;51.412;5.436;2022-12-18T01:27:27;102665.78;;;-5.86;83.41
73981;BME280;62348;51.412;5.436;2022-12-18T01:29:52;102666.81;;;-5.89;83.25
73981;BME280;62348;51.412;5.436;2022-12-18T01:32:18;102666.91;;;-5.90;83.65
73981;BME280;62348;51.412;5.436;2022-12-18T01:34:43;102673.16;;;-5.91;83.76
73981;BME280;62348;51.412;5.436;2022-12-18T01:37:08;102662.72;;;-5.93;83.61
73981;BME280;62348;51.412;5.436;2022-12-18T01:39:34;102666.31;;;-5.94;83.29
73981;BME280;62348;51.412;5.436;2022-12-18T01:42:02;102661.38;;;-5.98;83.21
73981;BME280;62348;51.412;5.436;2022-12-18T01:50:07;102659.81;;;-6.01;83.43
73981;BME280;62348;51.412;5.436;2022-12-18T01:52:34;102655.72;;;-6.05;83.24
73981;BME280;62348;51.412;5.436;2022-12-18T01:55:00;102660.97;;;-6.05;83.38
73981;BME280;62348;51.412;5.436;2022-12-18T01:57:27;102662.03;;;-6.07;83.18
73981;BME280;62348;51.412;5.436;2022-12-18T01:59:57;102658.66;;;-6.10;83.15
73981;BME280;62348;51.412;5.436;2022-12-18T02:02:26;102658.03;;;-6.13;82.82
73981;BME280;62348;51.412;5.436;2022-12-18T02:04:52;102653.81;;;-6.16;82.37
73981;BME280;62348;51.412;5.436;2022-12-18T02:10:00;102649.63;;;-6.18;83.15
73981;BME280;62348;51.412;5.436;2022-12-18T02:12:44;102654.88;;;-6.18;83.45
73981;BME280;62348;51.412;5.436;2022-12-18T02:15:21;102651.38;;;-6.19;83.23
73981;BME280;62348;51.412;5.436;2022-12-18T02:17:56;102648.03;;;-6.21;83.82
73981;BME280;62348;51.412;5.436;2022-12-18T02:20:33;102650.75;;;-6.22;83.20
73981;BME280;62348;51.412;5.436;2022-12-18T02:23:17;102649.00;;;-6.22;83.12
73981;BME280;62348;51.412;5.436;2022-12-18T02:28:42;102648.25;;;-6.24;83.28
73981;BME280;62348;51.412;5.436;2022-12-18T02:31:13;102652.66;;;-6.24;83.51
73981;BME280;62348;51.412;5.436;2022-12-18T02:33:40;102647.50;;;-6.26;83.33
73981;BME280;62348;51.412;5.436;2022-12-18T02:36:09;102632.84;;;-6.30;82.64
73981;BME280;62348;51.412;5.436;2022-12-18T02:38:36;102637.28;;;-6.31;82.93
73981;BME280;62348;51.412;5.436;2022-12-18T02:41:03;102633.19;;;-6.35;82.59
73981;BME280;62348;51.412;5.436;2022-12-18T02:43:29;102632.47;;;-6.37;82.44
73981;BME280;62348;51.412;5.436;2022-12-18T02:45:59;102633.50;;;-6.39;82.66
73981;BME280;62348;51.412;5.436;2022-12-18T02:48:34;102636.13;;;-6.39;82.87
73981;BME280;62348;51.412;5.436;2022-12-18T02:51:09;102616.97;;;-6.41;82.63
73981;BME280;62348;51.412;5.436;2022-12-18T02:53:45;102614.56;;;-6.44;83.00
73981;BME280;62348;51.412;5.436;2022-12-18T02:56:18;102612.03;;;-6.46;82.74
73981;BME280;62348;51.412;5.436;2022-12-18T02:59:08;102618.22;;;-6.47;82.80
73981;BME280;62348;51.412;5.436;2022-12-18T03:01:52;102612.03;;;-6.46;83.27
73981;BME280;62348;51.412;5.436;2022-12-18T03:04:34;102619.19;;;-6.48;82.96
73981;BME280;62348;51.412;5.436;2022-12-18T03:07:07;102619.38;;;-6.51;83.20
73981;BME280;62348;51.412;5.436;2022-12-18T03:09:38;102604.56;;;-6.52;82.86
73981;BME280;62348;51.412;5.436;2022-12-18T03:12:10;102608.13;;;-6.53;82.61
73981;BME280;62348;51.412;5.436;2022-12-18T03:15:24;102600.03;;;-6.50;83.54
73981;BME280;62348;51.412;5.436;2022-12-18T03:18:03;102597.59;;;-6.53;83.40
73981;BME280;62348;51.412;5.436;2022-12-18T03:20:31;102598.56;;;-6.54;83.38
73981;BME280;62348;51.412;5.436;2022-12-18T03:23:11;102602.84;;;-6.53;83.50
73981;BME280;62348;51.412;5.436;2022-12-18T03:25:41;102602.03;;;-6.54;83.15
73981;BME280;62348;51.412;5.436;2022-12-18T03:28:10;102587.91;;;-6.53;83.67
73981;BME280;62348;51.412;5.436;2022-12-18T03:30:39;102590.66;;;-6.54;83.80
73981;BME280;62348;51.412;5.436;2022-12-18T03:33:31;102601.06;;;-6.53;83.76
73981;BME280;62348;51.412;5.436;2022-12-18T03:36:00;102604.75;;;-6.55;83.41
73981;BME280;62348;51.412;5.436;2022-12-18T03:38:25;102603.94;;;-6.56;82.98
73981;BME280;62348;51.412;5.436;2022-12-18T03:41:58;102609.19;;;-6.56;83.35
73981;BME280;62348;51.412;5.436;2022-12-18T03:46:33;102605.81;;;-6.58;83.35
73981;BME280;62348;51.412;5.436;2022-12-18T03:49:09;102601.41;;;-6.57;83.34
73981;BME280;62348;51.412;5.436;2022-12-18T03:51:46;102604.84;;;-6.57;83.25
73981;BME280;62348;51.412;5.436;2022-12-18T03:54:16;102603.19;;;-6.58;83.52
73981;BME280;62348;51.412;5.436;2022-12-18T03:56:46;102595.28;;;-6.58;83.96
73981;BME280;62348;51.412;5.436;2022-12-18T03:59:15;102588.22;;;-6.57;83.89
73981;BME280;62348;51.412;5.436;2022-12-18T04:01:45;102581.16;;;-6.57;82.92
73981;BME280;62348;51.412;5.436;2022-12-18T04:04:12;102572.44;;;-6.57;83.50
73981;BME280;62348;51.412;5.436;2022-12-18T04:06:40;102565.38;;;-6.57;83.31
73981;BME280;62348;51.412;5.436;2022-12-18T04:09:07;102557.72;;;-6.60;83.59
73981;BME280;62348;51.412;5.436;2022-12-18T04:11:33;102560.34;;;-6.60;82.97
73981;BME280;62348;51.412;5.436;2022-12-18T04:13:59;102555.19;;;-6.61;83.19
73981;BME280;62348;51.412;5.436;2022-12-18T04:16:27;102557.81;;;-6.61;83.92
73981;BME280;62348;51.412;5.436;2022-12-18T04:18:53;102554.34;;;-6.62;83.88
73981;BME280;62348;51.412;5.436;2022-12-18T04:21:19;102545.50;;;-6.61;82.79
73981;BME280;62348;51.412;5.436;2022-12-18T04:23:45;102536.88;;;-6.63;83.43
73981;BME280;62348;51.412;5.436;2022-12-18T04:26:10;102540.56;;;-6.65;83.21
73981;BME280;62348;51.412;5.436;2022-12-18T04:28:36;102544.88;;;-6.64;83.80
73981;BME280;62348;51.412;5.436;2022-12-18T04:31:01;102551.09;;;-6.65;83.23
73981;BME280;62348;51.412;5.436;2022-12-18T04:33:27;102552.84;;;-6.66;83.30
73981;BME280;62348;51.412;5.436;2022-12-18T04:35:53;102555.50;;;-6.66;83.13
73981;BME280;62348;51.412;5.436;2022-12-18T04:38:18;102561.63;;;-6.65;83.34
73981;BME280;62348;51.412;5.436;2022-12-18T04:40:43;102561.63;;;-6.65;83.29
73981;BME280;62348;51.412;5.436;2022-12-18T04:43:09;102566.16;;;-6.68;83.45
73981;BME280;62348;51.412;5.436;2022-12-18T04:45:34;102570.53;;;-6.68;83.42
73981;BME280;62348;51.412;5.436;2022-12-18T04:48:00;102578.53;;;-6.70;83.33
73981;BME280;62348;51.412;5.436;2022-12-18T04:50:26;102576.88;;;-6.71;82.96
73981;BME280;62348;51.412;5.436;2022-12-18T04:52:52;102585.59;;;-6.70;82.85
73981;BME280;62348;51.412;5.436;2022-12-18T04:55:18;102580.44;;;-6.72;82.54
73981;BME280;62348;51.412;5.436;2022-12-18T04:57:43;102583.28;;;-6.75;82.58
73981;BME280;62348;51.412;5.436;2022-12-18T05:00:09;102586.03;;;-6.76;82.33
73981;BME280;62348;51.412;5.436;2022-12-18T05:02:34;102585.28;;;-6.78;82.73
73981;BME280;62348;51.412;5.436;2022-12-18T05:05:00;102582.75;;;-6.80;82.86
73981;BME280;62348;51.412;5.436;2022-12-18T05:07:25;102580.22;;;-6.81;82.58
73981;BME280;62348;51.412;5.436;2022-12-18T05:09:50;102582.13;;;-6.83;82.83
73981;BME280;62348;51.412;5.436;2022-12-18T05:12:16;102582.44;;;-6.88;82.51
73981;BME280;62348;51.412;5.436;2022-12-18T05:14:41;102588.72;;;-6.91;82.41
73981;BME280;62348;51.412;5.436;2022-12-18T05:17:07;102590.53;;;-6.91;82.53
73981;BME280;62348;51.412;5.436;2022-12-18T05:19:32;102588.97;;;-6.94;82.17
73981;BME280;62348;51.412;5.436;2022-12-18T05:21:58;102589.06;;;-6.95;82.72
73981;BME280;62348;51.412;5.436;2022-12-18T05:24:23;102587.47;;;-6.98;81.82
73981;BME280;62348;51.412;5.436;2022-12-18T05:26:49;102578.84;;;-7.00;82.02
73981;BME280;62348;51.412;5.436;2022-12-18T05:29:14;102576.31;;;-7.01;82.18
73981;BME280;62348;51.412;5.436;2022-12-18T05:31:39;102582.41;;;-7.01;81.95
73981;BME280;62348;51.412;5.436;2022-12-18T05:34:05;102578.09;;;-7.02;82.14
73981;BME280;62348;51.412;5.436;2022-12-18T05:36:31;102585.13;;;-7.02;82.26
73981;BME280;62348;51.412;5.436;2022-12-18T05:38:57;102575.47;;;-7.02;82.35
73981;BME280;62348;51.412;5.436;2022-12-18T05:41:22;102572.09;;;-7.04;82.21
73981;BME280;62348;51.412;5.436;2022-12-18T05:43:47;102558.09;;;-7.04;81.88
73981;BME280;62348;51.412;5.436;2022-12-18T05:46:15;102560.94;;;-7.08;82.27
73981;BME280;62348;51.412;5.436;2022-12-18T05:48:42;102563.56;;;-7.08;81.90
73981;BME280;62348;51.412;5.436;2022-12-18T05:51:10;102571.56;;;-7.09;82.17
73981;BME280;62348;51.412;5.436;2022-12-18T05:53:36;102568.22;;;-7.11;81.62
73981;BME280;62348;51.412;5.436;2022-12-18T05:56:04;102566.41;;;-7.11;82.54
73981;BME280;62348;51.412;5.436;2022-12-18T05:58:30;102568.22;;;-7.11;82.26
73981;BME280;62348;51.412;5.436;2022-12-18T06:00:56;102556.72;;;-7.10;82.69
73981;BME280;62348;51.412;5.436;2022-12-18T06:03:22;102560.31;;;-7.11;82.18
73981;BME280;62348;51.412;5.436;2022-12-18T06:05:47;102559.47;;;-7.12;82.48
73981;BME280;62348;51.412;5.436;2022-12-18T06:08:13;102548.94;;;-7.12;82.29
73981;BME280;62348;51.412;5.436;2022-12-18T06:10:39;102547.19;;;-7.11;82.45
73981;BME280;62348;51.412;5.436;2022-12-18T06:13:06;102549.03;;;-7.13;83.02
73981;BME280;62348;51.412;5.436;2022-12-18T06:15:31;102568.09;;;-7.10;82.77
73981;BME280;62348;51.412;5.436;2022-12-18T06:17:57;102570.63;;;-7.08;82.63
73981;BME280;62348;51.412;5.436;2022-12-18T06:20:22;102569.69;;;-7.07;82.67
73981;BME280;62348;51.412;5.436;2022-12-18T06:22:48;102573.16;;;-7.07;82.99
73981;BME280;62348;51.412;5.436;2022-12-18T06:25:13;102572.22;;;-7.05;82.41
73981;BME280;62348;51.412;5.436;2022-12-18T06:27:39;102569.59;;;-7.05;82.49
73981;BME280;62348;51.412;5.436;2022-12-18T06:30:06;102562.63;;;-7.07;82.47
73981;BME280;62348;51.412;5.436;2022-12-18T06:32:31;102563.56;;;-7.08;82.41
73981;BME280;62348;51.412;5.436;2022-12-18T06:34:57;102562.72;;;-7.08;82.74
73981;BME280;62348;51.412;5.436;2022-12-18T06:37:22;102561.91;;;-7.09;82.66
73981;BME280;62348;51.412;5.436;2022-12-18T06:39:54;102563.78;;;-7.11;82.70
73981;BME280;62348;51.412;5.436;2022-12-18T06:42:21;102556.19;;;-7.15;82.76
73981;BME280;62348;51.412;5.436;2022-12-18T06:44:47;102558.81;;;-7.15;82.59
73981;BME280;62348;51.412;5.436;2022-12-18T06:47:12;102553.69;;;-7.17;82.32
73981;BME280;62348;51.412;5.436;2022-12-18T06:49:37;102550.19;;;-7.17;82.13
73981;BME280;62348;51.412;5.436;2022-12-18T06:52:03;102546.81;;;-7.19;82.52
73981;BME280;62348;51.412;5.436;2022-12-18T06:54:28;102550.41;;;-7.20;82.72
73981;BME280;62348;51.412;5.436;2022-12-18T06:56:53;102545.16;;;-7.20;82.91
73981;BME280;62348;51.412;5.436;2022-12-18T06:59:19;102546.19;;;-7.23;82.19
73981;BME280;62348;51.412;5.436;2022-12-18T07:01:44;102549.69;;;-7.22;82.55
73981;BME280;62348;51.412;5.436;2022-12-18T07:04:09;102546.19;;;-7.23;82.25
73981;BME280;62348;51.412;5.436;2022-12-18T07:06:35;102551.56;;;-7.24;82.67
73981;BME280;62348;51.412;5.436;2022-12-18T07:09:00;102543.78;;;-7.26;82.21
73981;BME280;62348;51.412;5.436;2022-12-18T07:11:26;102531.66;;;-7.29;81.99
73981;BME280;62348;51.412;5.436;2022-12-18T07:13:52;102534.28;;;-7.29;82.50
73981;BME280;62348;51.412;5.436;2022-12-18T07:16:18;102530.00;;;-7.30;82.90
73981;BME280;62348;51.412;5.436;2022-12-18T07:18:44;102529.16;;;-7.30;82.57
73981;BME280;62348;51.412;5.436;2022-12-18T07:21:13;102523.03;;;-7.31;82.61
73981;BME280;62348;51.412;5.436;2022-12-18T07:23:39;102515.16;;;-7.31;83.14
73981;BME280;62348;51.412;5.436;2022-12-18T07:26:06;102503.72;;;-7.30;82.96
73981;BME280;62348;51.412;5.436;2022-12-18T07:28:33;102487.09;;;-7.30;83.28
73981;BME280;62348;51.412;5.436;2022-12-18T07:31:06;102486.16;;;-7.29;83.08
73981;BME280;62348;51.412;5.436;2022-12-18T07:33:33;102484.34;;;-7.29;83.16
73981;BME280;62348;51.412;5.436;2022-12-18T07:36:00;102483.41;;;-7.28;83.66
73981;BME280;62348;51.412;5.436;2022-12-18T07:38:25;102489.50;;;-7.27;83.36
73981;BME280;62348;51.412;5.436;2022-12-18T07:40:51;102491.31;;;-7.28;83.32
73981;BME280;62348;51.412;5.436;2022-12-18T07:43:16;102489.41;;;-7.26;83.35
73981;BME280;62348;51.412;5.436;2022-12-18T07:45:42;102482.34;;;-7.25;83.69
73981;BME280;62348;51.412;5.436;2022-12-18T07:48:08;102466.59;;;-7.25;84.40
73981;BME280;62348;51.412;5.436;2022-12-18T07:50:33;102461.97;;;-7.21;84.59
73981;BME280;62348;51.412;5.436;2022-12-18T07:52:59;102462.69;;;-7.19;84.46
73981;BME280;62348;51.412;5.436;2022-12-18T07:55:29;102459.88;;;-7.16;84.50
73981;BME280;62348;51.412;5.436;2022-12-18T07:57:54;102450.19;;;-7.16;84.52
73981;BME280;62348;51.412;5.436;2022-12-18T08:00:20;102452.63;;;-7.13;84.96
73981;BME280;62348;51.412;5.436;2022-12-18T08:02:45;102441.88;;;-7.10;85.02
73981;BME280;62348;51.412;5.436;2022-12-18T08:05:11;102445.25;;;-7.08;84.28
73981;BME280;62348;51.412;5.436;2022-12-18T08:07:36;102445.03;;;-7.04;84.67
73981;BME280;62348;51.412;5.436;2022-12-18T08:10:02;102450.81;;;-6.99;84.98
73981;BME280;62348;51.412;5.436;2022-12-18T08:12:27;102458.47;;;-6.96;85.55
73981;BME280;62348;51.412;5.436;2022-12-18T08:14:53;102460.81;;;-6.92;85.63
73981;BME280;62348;51.412;5.436;2022-12-18T08:17:19;102454.50;;;-6.89;85.40
73981;BME280;62348;51.412;5.436;2022-12-18T08:19:45;102452.50;;;-6.85;85.22
73981;BME280;62348;51.412;5.436;2022-12-18T08:22:10;102462.72;;;-6.81;85.81
73981;BME280;62348;51.412;5.436;2022-12-18T08:24:35;102469.53;;;-6.78;85.29
73981;BME280;62348;51.412;5.436;2022-12-18T08:27:01;102468.47;;;-6.76;85.57
73981;BME280;62348;51.412;5.436;2022-12-18T08:29:26;102466.47;;;-6.72;85.77
73981;BME280;62348;51.412;5.436;2022-12-18T08:31:52;102466.16;;;-6.68;85.61
73981;BME280;62348;51.412;5.436;2022-12-18T08:34:17;102476.44;;;-6.64;85.35
73981;BME280;62348;51.412;5.436;2022-12-18T08:36:42;102468.44;;;-6.63;86.20
73981;BME280;62348;51.412;5.436;2022-12-18T08:39:08;102464.66;;;-6.59;86.11
73981;BME280;62348;51.412;5.436;2022-12-18T08:41:33;102463.38;;;-6.53;86.00
73981;BME280;62348;51.412;5.436;2022-12-18T08:43:58;102452.53;;;-6.49;85.69
73981;BME280;62348;51.412;5.436;2022-12-18T08:46:43;102441.88;;;-6.47;86.10
73981;BME280;62348;51.412;5.436;2022-12-18T08:49:10;102439.03;;;-6.44;85.86
73981;BME280;62348;51.412;5.436;2022-12-18T08:51:37;102433.78;;;-6.44;86.46
73981;BME280;62348;51.412;5.436;2022-12-18T08:54:03;102437.03;;;-6.40;86.53
73981;BME280;62348;51.412;5.436;2022-12-18T08:56:29;102441.94;;;-6.36;86.09
73981;BME280;62348;51.412;5.436;2022-12-18T08:58:55;102442.56;;;-6.32;86.16
73981;BME280;62348;51.412;5.436;2022-12-18T09:01:22;102434.22;;;-6.26;86.91
73981;BME280;62348;51.412;5.436;2022-12-18T09:03:49;102435.72;;;-6.22;86.82
73981;BME280;62348;51.412;5.436;2022-12-18T09:06:17;102433.56;;;-6.17;86.24
73981;BME280;62348;51.412;5.436;2022-12-18T09:08:43;102440.31;;;-6.13;86.12
73981;BME280;62348;51.412;5.436;2022-12-18T09:11:15;102438.16;;;-6.07;87.22
73981;BME280;62348;51.412;5.436;2022-12-18T09:13:43;102444.75;;;-6.02;86.96
73981;BME280;62348;51.412;5.436;2022-12-18T09:16:09;102455.81;;;-5.97;86.63
73981;BME280;62348;51.412;5.436;2022-12-18T09:18:34;102455.56;;;-5.94;87.08
73981;BME280;62348;51.412;5.436;2022-12-18T09:21:07;102458.69;;;-5.89;86.72
73981;BME280;62348;51.412;5.436;2022-12-18T09:23:33;102456.56;;;-5.83;86.60
73981;BME280;62348;51.412;5.436;2022-12-18T09:25:59;102450.94;;;-5.79;87.10
73981;BME280;62348;51.412;5.436;2022-12-18T09:28:24;102449.63;;;-5.73;87.20
73981;BME280;62348;51.412;5.436;2022-12-18T09:30:50;102446.91;;;-5.72;87.23
73981;BME280;62348;51.412;5.436;2022-12-18T09:33:16;102423.78;;;-5.68;86.57
73981;BME280;62348;51.412;5.436;2022-12-18T09:35:43;102420.06;;;-5.65;87.04
73981;BME280;62348;51.412;5.436;2022-12-18T09:38:12;102424.28;;;-5.63;87.21
73981;BME280;62348;51.412;5.436;2022-12-18T09:40:43;102423.94;;;-5.58;86.95
73981;BME280;62348;51.412;5.436;2022-12-18T09:43:18;102427.19;;;-5.55;87.85
73981;BME280;62348;51.412;5.436;2022-12-18T09:45:49;102440.97;;;-5.51;87.52
73981;BME280;62348;51.412;5.436;2022-12-18T09:48:31;102433.56;;;-5.46;87.72
73981;BME280;62348;51.412;5.436;2022-12-18T09:51:10;102420.03;;;-5.41;87.37
73981;BME280;62348;51.412;5.436;2022-12-18T09:53:40;102415.97;;;-5.34;87.34
73981;BME280;62348;51.412;5.436;2022-12-18T09:56:12;102409.50;;;-5.30;87.30
73981;BME280;62348;51.412;5.436;2022-12-18T09:59:01;102409.00;;;-5.24;87.17
73981;BME280;62348;51.412;5.436;2022-12-18T10:01:28;102413.94;;;-5.19;87.29
73981;BME280;62348;51.412;5.436;2022-12-18T10:03:55;102421.38;;;-5.13;88.14
73981;BME280;62348;51.412;5.436;2022-12-18T10:12:28;102405.19;;;-4.97;87.56
73981;BME280;62348;51.412;5.436;2022-12-18T10:20:08;102407.47;;;-4.81;88.30
73981;BME280;62348;51.412;5.436;2022-12-18T10:23:02;102415.72;;;-4.75;87.63
73981;BME280;62348;51.412;5.436;2022-12-18T10:25:38;102402.19;;;-4.70;87.64
73981;BME280;62348;51.412;5.436;2022-12-18T10:28:12;102402.63;;;-4.65;88.56
73981;BME280;62348;51.412;5.436;2022-12-18T10:30:39;102404.09;;;-4.61;87.98
73981;BME280;62348;51.412;5.436;2022-12-18T10:33:05;102397.59;;;-4.57;87.82
73981;BME280;62348;51.412;5.436;2022-12-18T10:35:30;102391.09;;;-4.53;88.24
73981;BME280;62348;51.412;5.436;2022-12-18T10:38:07;102370.56;;;-4.49;87.81
73981;BME280;62348;51.412;5.436;2022-12-18T10:41:03;102364.09;;;-4.45;87.73
73981;BME280;62348;51.412;5.436;2022-12-18T10:48:34;102358.75;;;-4.34;87.60
73981;BME280;62348;51.412;5.436;2022-12-18T10:51:02;102356.00;;;-4.32;87.91
73981;BME280;62348;51.412;5.436;2022-12-18T10:53:29;102364.53;;;-4.28;87.84
73981;BME280;62348;51.412;5.436;2022-12-18T10:55:58;102351.03;;;-4.25;87.83
73981;BME280;62348;51.412;5.436;2022-12-18T10:58:29;102349.81;;;-4.21;87.93
73981;BME280;62348;51.412;5.436;2022-12-18T11:01:08;102340.69;;;-4.17;87.87
73981;BME280;62348;51.412;5.436;2022-12-18T11:06:13;102334.97;;;-4.01;89.85
73981;BME280;62348;51.412;5.436;2022-12-18T11:08:39;102327.75;;;-3.99;88.10
73981;BME280;62348;51.412;5.436;2022-12-18T11:11:19;102330.00;;;-3.95;87.96
73981;BME280;62348;51.412;5.436;2022-12-18T11:14:03;102338.66;;;-3.93;87.80
73981;BME280;62348;51.412;5.436;2022-12-18T11:16:33;102341.84;;;-3.89;88.31
73981;BME280;62348;51.412;5.436;2022-12-18T11:19:19;102328.50;;;-3.87;87.82
73981;BME280;62348;51.412;5.436;2022-12-18T11:21:47;102327.44;;;-3.85;87.32
73981;BME280;62348;51.412;5.436;2022-12-18T11:24:27;102321.03;;;-3.82;88.33
73981;BME280;62348;51.412;5.436;2022-12-18T11:26:54;102306.59;;;-3.78;88.06
73981;BME280;62348;51.412;5.436;2022-12-18T11:29:27;102302.84;;;-3.76;87.85
73981;BME280;62348;51.412;5.436;2022-12-18T11:37:55;102301.94;;;-3.65;87.39
73981;BME280;62348;51.412;5.436;2022-12-18T11:40:31;102294.59;;;-3.61;87.43
73981;BME280;62348;51.412;5.436;2022-12-18T11:43:10;102307.41;;;-3.57;87.57
73981;BME280;62348;51.412;5.436;2022-12-18T11:45:48;102300.03;;;-3.53;87.02
73981;BME280;62348;51.412;5.436;2022-12-18T11:48:21;102296.31;;;-3.50;87.87
73981;BME280;62348;51.412;5.436;2022-12-18T11:50:54;102295.91;;;-3.46;87.68
73981;BME280;62348;51.412;5.436;2022-12-18T11:53:21;102289.38;;;-3.42;87.55
73981;BME280;62348;51.412;5.436;2022-12-18T12:15:27;102256.03;;;-3.14;86.44
73981;BME280;62348;51.412;5.436;2022-12-18T12:26:17;102248.13;;;-3.04;86.47
73981;BME280;62348;51.412;5.436;2022-12-18T12:32:07;102231.72;;;-2.98;86.26
73981;BME280;62348;51.412;5.436;2022-12-18T12:40:13;102216.09;;;-2.91;86.12
73981;BME280;62348;51.412;5.436;2022-12-18T12:42:42;102221.00;;;-2.86;86.36
73981;BME280;62348;51.412;5.436;2022-12-18T12:45:36;102215.53;;;-2.85;85.25
73981;BME280;62348;51.412;5.436;2022-12-18T12:48:05;102206.66;;;-2.84;84.96
73981;BME280;62348;51.412;5.436;2022-12-18T12:50:34;102214.44;;;-2.82;84.67
73981;BME280;62348;51.412;5.436;2022-12-18T12:53:01;102208.03;;;-2.80;84.73
73981;BME280;62348;51.412;5.436;2022-12-18T12:55:32;102201.78;;;-2.79;84.74
73981;BME280;62348;51.412;5.436;2022-12-18T12:58:26;102195.34;;;-2.76;85.02
73981;BME280;62348;51.412;5.436;2022-12-18T13:07:15;102182.38;;;-2.69;84.64
73981;BME280;62348;51.412;5.436;2022-12-18T13:09:21;102184.88;;;-2.68;84.84
73981;BME280;62348;51.412;5.436;2022-12-18T13:11:47;102177.63;;;-2.66;85.02
73981;BME280;62348;51.412;5.436;2022-12-18T13:14:40;102180.16;;;-2.64;84.45
73981;BME280;62348;51.412;5.436;2022-12-18T13:35:41;102169.28;;;-2.51;84.82
73981;BME280;62348;51.412;5.436;2022-12-18T13:38:36;102176.09;;;-2.49;84.47
73981;BME280;62348;51.412;5.436;2022-12-18T13:43:46;102167.03;;;-2.46;84.71
73981;BME280;62348;51.412;5.436;2022-12-18T13:46:27;102164.22;;;-2.45;83.58
73981;BME280;62348;51.412;5.436;2022-12-18T13:49:03;102165.09;;;-2.44;84.28
73981;BME280;62348;51.412;5.436;2022-12-18T13:51:33;102156.13;;;-2.43;84.34
73981;BME280;62348;51.412;5.436;2022-12-18T13:54:01;102146.22;;;-2.41;84.44
73981;BME280;62348;51.412;5.436;2022-12-18T13:56:30;102152.22;;;-2.39;84.26
73981;BME280;62348;51.412;5.436;2022-12-18T14:01:33;102149.31;;;-2.36;84.09
73981;BME280;62348;51.412;5.436;2022-12-18T14:04:31;102152.50;;;-2.32;84.20
73981;BME280;62348;51.412;5.436;2022-12-18T14:07:01;102154.31;;;-2.33;84.38
73981;BME280;62348;51.412;5.436;2022-12-18T14:09:30;102157.66;;;-2.31;83.59
73981;BME280;62348;51.412;5.436;2022-12-18T14:11:56;102138.13;;;-2.30;83.22
73981;BME280;62348;51.412;5.436;2022-12-18T14:14:45;102151.22;;;-2.28;83.88
73981;BME280;62348;51.412;5.436;2022-12-18T14:17:12;102147.75;;;-2.29;83.87
73981;BME280;62348;51.412;5.436;2022-12-18T14:19:42;102145.09;;;-2.29;84.48
73981;BME280;62348;51.412;5.436;2022-12-18T14:22:15;102137.84;;;-2.27;84.61
73981;BME280;62348;51.412;5.436;2022-12-18T14:24:41;102140.50;;;-2.27;84.21
73981;BME280;62348;51.412;5.436;2022-12-18T14:27:22;102138.53;;;-2.25;84.43
73981;BME280;62348;51.412;5.436;2022-12-18T14:29:48;102138.53;;;-2.25;83.69
73981;BME280;62348;51.412;5.436;2022-12-18T14:32:16;102138.53;;;-2.25;83.86
73981;BME280;62348;51.412;5.436;2022-12-18T14:34:52;102134.91;;;-2.24;84.52
73981;BME280;62348;51.412;5.436;2022-12-18T14:37:24;102141.19;;;-2.25;84.32
73981;BME280;62348;51.412;5.436;2022-12-18T14:40:12;102140.91;;;-2.22;84.20
73981;BME280;62348;51.412;5.436;2022-12-18T14:42:38;102140.22;;;-2.24;84.10
73981;BME280;62348;51.412;5.436;2022-12-18T14:48:19;102140.91;;;-2.22;82.99
73981;BME280;62348;51.412;5.436;2022-12-18T14:50:58;102135.44;;;-2.20;83.25